sensor_id;sensor_type;location;lat;lon;timestamp;temperature;humidity
28177;DHT22;15461;41.652;9.378;2023-04-25T00:01:39;16.50;99.90
28177;DHT22;15461;41.652;9.378;2023-04-25T00:04:05;16.50;99.90
28177;DHT22;15461;41.652;9.378;2023-04-25T00:06:37;16.50;99.90
28177;DHT22;15461;41.652;9.378;2023-04-25T00:09:06;16.50;99.90
28177;DHT22;15461;41.652;9.378;2023-04-25T00:11:36;16.50;99.90
28177;DHT22;15461;41.652;9.378;2023-04-25T00:14:03;16.50;99.90
28177;DHT22;15461;41.652;9.378;2023-04-25T00:16:30;16.50;99.90
28177;DHT22;15461;41.652;9.378;2023-04-25T00:18:59;16.50;99.90
28177;DHT22;15461;41.652;9.378;2023-04-25T00:21:25;16.50;99.90
28177;DHT22;15461;41.652;9.378;2023-04-25T00:23:55;16.50;99.90
28177;DHT22;15461;41.652;9.378;2023-04-25T00:26:21;16.50;99.90
28177;DHT22;15461;41.652;9.378;2023-04-25T00:28:47;16.50;99.90
28177;DHT22;15461;41.652;9.378;2023-04-25T00:31:13;16.50;99.90
28177;DHT22;15461;41.652;9.378;2023-04-25T00:33:39;16.50;99.90
28177;DHT22;15461;41.652;9.378;2023-04-25T00:36:06;16.50;99.90
28177;DHT22;15461;41.652;9.378;2023-04-25T00:38:32;16.40;99.90
28177;DHT22;15461;41.652;9.378;2023-04-25T00:40:58;16.40;99.90
28177;DHT22;15461;41.652;9.378;2023-04-25T00:43:27;16.40;99.90
28177;DHT22;15461;41.652;9.378;2023-04-25T00:45:53;16.40;99.90
28177;DHT22;15461;41.652;9.378;2023-04-25T00:48:21;16.40;99.90
28177;DHT22;15461;41.652;9.378;2023-04-25T00:50:56;16.50;99.90
28177;DHT22;15461;41.652;9.378;2023-04-25T00:53:24;16.50;99.90
28177;DHT22;15461;41.652;9.378;2023-04-25T00:55:50;16.50;99.90
28177;DHT22;15461;41.652;9.378;2023-04-25T00:58:20;16.50;99.90
28177;DHT22;15461;41.652;9.378;2023-04-25T01:00:48;16.50;99.90
28177;DHT22;15461;41.652;9.378;2023-04-25T01:03:15;16.50;99.90
28177;DHT22;15461;41.652;9.378;2023-04-25T01:05:48;16.50;99.90
28177;DHT22;15461;41.652;9.378;2023-04-25T01:08:14;16.50;99.90
28177;DHT22;15461;41.652;9.378;2023-04-25T01:10:40;16.50;99.90
28177;DHT22;15461;41.652;9.378;2023-04-25T01:13:06;16.50;99.90
28177;DHT22;15461;41.652;9.378;2023-04-25T01:15:32;16.50;99.90
28177;DHT22;15461;41.652;9.378;2023-04-25T01:17:58;16.50;99.90
28177;DHT22;15461;41.652;9.378;2023-04-25T01:20:26;16.50;99.90
28177;DHT22;15461;41.652;9.378;2023-04-25T01:22:54;16.50;99.90
28177;DHT22;15461;41.652;9.378;2023-04-25T01:25:21;16.50;99.90
28177;DHT22;15461;41.652;9.378;2023-04-25T01:27:48;16.50;99.90
28177;DHT22;15461;41.652;9.378;2023-04-25T01:30:15;16.50;99.90
28177;DHT22;15461;41.652;9.378;2023-04-25T01:32:42;16.60;99.90
28177;DHT22;15461;41.652;9.378;2023-04-25T01:35:11;16.60;99.90
28177;DHT22;15461;41.652;9.378;2023-04-25T01:37:38;16.60;99.90
28177;DHT22;15461;41.652;9.378;2023-04-25T01:40:05;16.60;99.90
28177;DHT22;15461;41.652;9.378;2023-04-25T01:42:33;16.60;99.90
28177;DHT22;15461;41.652;9.378;2023-04-25T01:44:59;16.60;99.90
28177;DHT22;15461;41.652;9.378;2023-04-25T01:47:26;16.60;99.90
28177;DHT22;15461;41.652;9.378;2023-04-25T01:49:53;16.60;99.90
28177;DHT22;15461;41.652;9.378;2023-04-25T01:52:19;16.60;99.90
28177;DHT22;15461;41.652;9.378;2023-04-25T01:54:46;16.60;99.90
28177;DHT22;15461;41.652;9.378;2023-04-25T01:57:14;16.60;99.90
28177;DHT22;15461;41.652;9.378;2023-04-25T01:59:42;16.70;99.90
28177;DHT22;15461;41.652;9.378;2023-04-25T02:02:37;16.70;99.90
28177;DHT22;15461;41.652;9.378;2023-04-25T02:05:06;16.60;99.90
28177;DHT22;15461;41.652;9.378;2023-04-25T02:07:35;16.60;99.90
28177;DHT22;15461;41.652;9.378;2023-04-25T02:10:01;16.60;99.90
28177;DHT22;15461;41.652;9.378;2023-04-25T02:12:31;16.60;99.90
28177;DHT22;15461;41.652;9.378;2023-04-25T02:15:16;16.60;99.90
28177;DHT22;15461;41.652;9.378;2023-04-25T02:17:55;16.50;99.90
28177;DHT22;15461;41.652;9.378;2023-04-25T02:20:22;16.50;99.90
28177;DHT22;15461;41.652;9.378;2023-04-25T02:22:48;16.50;99.90
28177;DHT22;15461;41.652;9.378;2023-04-25T02:25:15;16.50;99.90
28177;DHT22;15461;41.652;9.378;2023-04-25T02:27:42;16.50;99.90
28177;DHT22;15461;41.652;9.378;2023-04-25T02:30:09;16.50;99.90
28177;DHT22;15461;41.652;9.378;2023-04-25T02:32:35;16.50;99.90
28177;DHT22;15461;41.652;9.378;2023-04-25T02:35:02;16.60;99.90
28177;DHT22;15461;41.652;9.378;2023-04-25T02:37:34;16.60;99.90
28177;DHT22;15461;41.652;9.378;2023-04-25T02:40:01;16.60;99.90
28177;DHT22;15461;41.652;9.378;2023-04-25T02:42:28;16.60;99.90
28177;DHT22;15461;41.652;9.378;2023-04-25T02:44:56;16.60;99.90
28177;DHT22;15461;41.652;9.378;2023-04-25T02:47:22;16.70;99.90
28177;DHT22;15461;41.652;9.378;2023-04-25T02:49:49;16.70;99.90
28177;DHT22;15461;41.652;9.378;2023-04-25T02:52:15;16.70;99.90
28177;DHT22;15461;41.652;9.378;2023-04-25T02:54:42;16.70;99.90
28177;DHT22;15461;41.652;9.378;2023-04-25T02:57:07;16.70;99.90
28177;DHT22;15461;41.652;9.378;2023-04-25T02:59:36;16.70;99.90
28177;DHT22;15461;41.652;9.378;2023-04-25T03:02:02;16.70;99.90
28177;DHT22;15461;41.652;9.378;2023-04-25T03:04:28;16.80;99.90
28177;DHT22;15461;41.652;9.378;2023-04-25T03:06:54;16.80;99.90
28177;DHT22;15461;41.652;9.378;2023-04-25T03:09:21;16.80;99.90
28177;DHT22;15461;41.652;9.378;2023-04-25T03:11:47;16.70;99.90
28177;DHT22;15461;41.652;9.378;2023-04-25T03:14:13;16.70;99.90
28177;DHT22;15461;41.652;9.378;2023-04-25T03:16:40;16.80;99.90
28177;DHT22;15461;41.652;9.378;2023-04-25T03:19:06;16.70;99.90
28177;DHT22;15461;41.652;9.378;2023-04-25T03:21:33;16.70;99.90
28177;DHT22;15461;41.652;9.378;2023-04-25T03:24:01;16.70;99.90
28177;DHT22;15461;41.652;9.378;2023-04-25T03:26:28;16.80;99.90
28177;DHT22;15461;41.652;9.378;2023-04-25T03:28:54;16.80;99.90
28177;DHT22;15461;41.652;9.378;2023-04-25T03:31:20;16.80;99.90
28177;DHT22;15461;41.652;9.378;2023-04-25T03:33:46;16.80;99.90
28177;DHT22;15461;41.652;9.378;2023-04-25T03:36:12;16.90;99.90
28177;DHT22;15461;41.652;9.378;2023-04-25T03:38:38;16.90;99.90
28177;DHT22;15461;41.652;9.378;2023-04-25T03:41:07;16.90;99.90
28177;DHT22;15461;41.652;9.378;2023-04-25T03:43:39;16.80;99.90
28177;DHT22;15461;41.652;9.378;2023-04-25T03:46:09;16.80;99.90
28177;DHT22;15461;41.652;9.378;2023-04-25T03:48:36;16.80;99.90
28177;DHT22;15461;41.652;9.378;2023-04-25T03:51:03;16.70;99.90
28177;DHT22;15461;41.652;9.378;2023-04-25T03:53:30;16.70;99.90
28177;DHT22;15461;41.652;9.378;2023-04-25T03:56:21;16.70;99.90
28177;DHT22;15461;41.652;9.378;2023-04-25T03:58:56;16.70;99.90
28177;DHT22;15461;41.652;9.378;2023-04-25T04:01:24;16.70;99.90
28177;DHT22;15461;41.652;9.378;2023-04-25T04:03:52;16.70;99.90
28177;DHT22;15461;41.652;9.378;2023-04-25T04:06:18;16.70;99.90
28177;DHT22;15461;41.652;9.378;2023-04-25T04:08:49;16.70;99.90
28177;DHT22;15461;41.652;9.378;2023-04-25T04:11:16;16.70;99.90
28177;DHT22;15461;41.652;9.378;2023-04-25T04:13:41;16.70;99.90
28177;DHT22;15461;41.652;9.378;2023-04-25T04:16:08;16.70;99.90
28177;DHT22;15461;41.652;9.378;2023-04-25T04:18:34;16.70;99.90
28177;DHT22;15461;41.652;9.378;2023-04-25T04:21:01;16.70;99.90
28177;DHT22;15461;41.652;9.378;2023-04-25T04:23:32;16.70;99.90
28177;DHT22;15461;41.652;9.378;2023-04-25T04:25:59;16.70;99.90
28177;DHT22;15461;41.652;9.378;2023-04-25T04:28:55;16.70;99.90
28177;DHT22;15461;41.652;9.378;2023-04-25T04:31:48;16.70;99.90
28177;DHT22;15461;41.652;9.378;2023-04-25T04:34:15;16.70;99.90
28177;DHT22;15461;41.652;9.378;2023-04-25T04:36:42;16.70;99.90
28177;DHT22;15461;41.652;9.378;2023-04-25T04:39:09;16.70;99.90
28177;DHT22;15461;41.652;9.378;2023-04-25T04:41:41;16.70;99.90
28177;DHT22;15461;41.652;9.378;2023-04-25T04:44:30;16.70;99.90
28177;DHT22;15461;41.652;9.378;2023-04-25T04:47:30;16.70;99.90
28177;DHT22;15461;41.652;9.378;2023-04-25T04:50:28;16.60;99.90
28177;DHT22;15461;41.652;9.378;2023-04-25T04:53:10;16.70;99.90
28177;DHT22;15461;41.652;9.378;2023-04-25T04:55:44;16.70;99.90
28177;DHT22;15461;41.652;9.378;2023-04-25T04:58:23;16.70;99.90
28177;DHT22;15461;41.652;9.378;2023-04-25T05:01:18;16.70;99.90
28177;DHT22;15461;41.652;9.378;2023-04-25T05:04:15;16.70;99.90
28177;DHT22;15461;41.652;9.378;2023-04-25T05:06:59;16.70;99.90
28177;DHT22;15461;41.652;9.378;2023-04-25T05:09:31;16.70;99.90
28177;DHT22;15461;41.652;9.378;2023-04-25T05:12:03;16.60;99.90
28177;DHT22;15461;41.652;9.378;2023-04-25T05:14:49;16.70;99.90
28177;DHT22;15461;41.652;9.378;2023-04-25T05:17:40;16.70;99.90
28177;DHT22;15461;41.652;9.378;2023-04-25T05:20:23;16.70;99.90
28177;DHT22;15461;41.652;9.378;2023-04-25T05:23:08;16.70;99.90
28177;DHT22;15461;41.652;9.378;2023-04-25T05:25:49;16.80;99.90
28177;DHT22;15461;41.652;9.378;2023-04-25T05:28:42;16.80;99.90
28177;DHT22;15461;41.652;9.378;2023-04-25T05:31:26;16.90;99.90
28177;DHT22;15461;41.652;9.378;2023-04-25T05:33:59;17.00;99.90
28177;DHT22;15461;41.652;9.378;2023-04-25T05:36:35;17.00;99.90
28177;DHT22;15461;41.652;9.378;2023-04-25T05:39:01;17.00;99.90
28177;DHT22;15461;41.652;9.378;2023-04-25T05:41:47;17.00;99.90
28177;DHT22;15461;41.652;9.378;2023-04-25T05:44:31;17.00;99.90
28177;DHT22;15461;41.652;9.378;2023-04-25T05:47:14;17.10;99.90
28177;DHT22;15461;41.652;9.378;2023-04-25T05:49:59;17.20;99.90
28177;DHT22;15461;41.652;9.378;2023-04-25T05:52:38;17.30;99.90
28177;DHT22;15461;41.652;9.378;2023-04-25T05:55:11;17.40;99.90
28177;DHT22;15461;41.652;9.378;2023-04-25T05:57:37;17.40;99.90
28177;DHT22;15461;41.652;9.378;2023-04-25T06:00:08;17.50;99.90
28177;DHT22;15461;41.652;9.378;2023-04-25T06:02:42;17.50;99.90
28177;DHT22;15461;41.652;9.378;2023-04-25T06:05:09;17.60;99.90
28177;DHT22;15461;41.652;9.378;2023-04-25T06:07:35;17.70;99.90
28177;DHT22;15461;41.652;9.378;2023-04-25T06:10:03;17.80;99.90
28177;DHT22;15461;41.652;9.378;2023-04-25T06:12:32;17.90;99.90
28177;DHT22;15461;41.652;9.378;2023-04-25T06:15:00;18.00;99.90
28177;DHT22;15461;41.652;9.378;2023-04-25T06:17:26;18.00;99.90
28177;DHT22;15461;41.652;9.378;2023-04-25T06:19:52;17.90;99.90
28177;DHT22;15461;41.652;9.378;2023-04-25T06:22:18;17.80;99.90
28177;DHT22;15461;41.652;9.378;2023-04-25T06:24:44;17.70;99.90
28177;DHT22;15461;41.652;9.378;2023-04-25T06:27:11;17.60;99.90
28177;DHT22;15461;41.652;9.378;2023-04-25T06:29:38;17.60;99.90
28177;DHT22;15461;41.652;9.378;2023-04-25T06:32:04;17.60;99.90
28177;DHT22;15461;41.652;9.378;2023-04-25T06:34:31;17.60;99.90
28177;DHT22;15461;41.652;9.378;2023-04-25T06:36:58;17.60;99.90
28177;DHT22;15461;41.652;9.378;2023-04-25T06:39:24;17.50;99.90
28177;DHT22;15461;41.652;9.378;2023-04-25T06:41:51;17.60;99.90
28177;DHT22;15461;41.652;9.378;2023-04-25T06:44:37;17.60;99.90
28177;DHT22;15461;41.652;9.378;2023-04-25T06:47:06;17.70;99.90
28177;DHT22;15461;41.652;9.378;2023-04-25T06:49:32;17.70;99.90
28177;DHT22;15461;41.652;9.378;2023-04-25T06:51:58;17.70;99.90
28177;DHT22;15461;41.652;9.378;2023-04-25T06:54:25;17.70;99.90
28177;DHT22;15461;41.652;9.378;2023-04-25T06:57:00;17.70;99.90
28177;DHT22;15461;41.652;9.378;2023-04-25T06:59:27;17.70;99.90
28177;DHT22;15461;41.652;9.378;2023-04-25T07:01:53;17.80;99.90
28177;DHT22;15461;41.652;9.378;2023-04-25T07:04:24;17.80;99.90
28177;DHT22;15461;41.652;9.378;2023-04-25T07:06:55;17.80;99.90
28177;DHT22;15461;41.652;9.378;2023-04-25T07:09:47;17.90;99.90
28177;DHT22;15461;41.652;9.378;2023-04-25T07:12:15;17.90;99.90
28177;DHT22;15461;41.652;9.378;2023-04-25T07:14:41;17.90;99.90
28177;DHT22;15461;41.652;9.378;2023-04-25T07:17:08;17.90;99.90
28177;DHT22;15461;41.652;9.378;2023-04-25T07:19:34;18.00;99.90
28177;DHT22;15461;41.652;9.378;2023-04-25T07:22:01;18.10;99.90
28177;DHT22;15461;41.652;9.378;2023-04-25T07:24:28;18.10;99.90
28177;DHT22;15461;41.652;9.378;2023-04-25T07:26:55;18.20;99.90
28177;DHT22;15461;41.652;9.378;2023-04-25T07:29:38;18.30;99.90
28177;DHT22;15461;41.652;9.378;2023-04-25T07:32:04;18.30;99.90
28177;DHT22;15461;41.652;9.378;2023-04-25T07:34:30;18.40;99.90
28177;DHT22;15461;41.652;9.378;2023-04-25T07:36:57;18.40;99.90
28177;DHT22;15461;41.652;9.378;2023-04-25T07:39:27;18.30;99.90
28177;DHT22;15461;41.652;9.378;2023-04-25T07:41:53;18.30;99.90
28177;DHT22;15461;41.652;9.378;2023-04-25T07:44:24;18.30;99.90
28177;DHT22;15461;41.652;9.378;2023-04-25T07:46:51;18.30;99.90
28177;DHT22;15461;41.652;9.378;2023-04-25T07:49:17;18.20;99.90
28177;DHT22;15461;41.652;9.378;2023-04-25T07:51:44;18.20;99.90
28177;DHT22;15461;41.652;9.378;2023-04-25T07:54:14;18.20;99.90
28177;DHT22;15461;41.652;9.378;2023-04-25T07:56:46;18.20;99.90
28177;DHT22;15461;41.652;9.378;2023-04-25T07:59:12;18.20;99.90
28177;DHT22;15461;41.652;9.378;2023-04-25T08:01:39;18.20;99.90
28177;DHT22;15461;41.652;9.378;2023-04-25T08:04:06;18.20;99.90
28177;DHT22;15461;41.652;9.378;2023-04-25T08:06:55;18.20;99.90
28177;DHT22;15461;41.652;9.378;2023-04-25T08:09:30;18.20;99.90
28177;DHT22;15461;41.652;9.378;2023-04-25T08:12:01;18.20;99.90
28177;DHT22;15461;41.652;9.378;2023-04-25T08:14:35;18.20;99.90
28177;DHT22;15461;41.652;9.378;2023-04-25T08:17:06;18.20;99.90
28177;DHT22;15461;41.652;9.378;2023-04-25T08:19:38;18.20;99.90
28177;DHT22;15461;41.652;9.378;2023-04-25T08:22:06;18.30;99.90
28177;DHT22;15461;41.652;9.378;2023-04-25T08:24:44;18.30;99.90
28177;DHT22;15461;41.652;9.378;2023-04-25T08:27:11;18.40;99.90
28177;DHT22;15461;41.652;9.378;2023-04-25T08:30:01;18.40;99.90
28177;DHT22;15461;41.652;9.378;2023-04-25T08:32:30;18.40;99.90
28177;DHT22;15461;41.652;9.378;2023-04-25T08:35:18;18.50;99.90
28177;DHT22;15461;41.652;9.378;2023-04-25T08:37:44;18.50;99.90
28177;DHT22;15461;41.652;9.378;2023-04-25T08:40:14;18.60;99.90
28177;DHT22;15461;41.652;9.378;2023-04-25T08:42:47;18.60;99.90
28177;DHT22;15461;41.652;9.378;2023-04-25T08:45:15;18.60;99.90
28177;DHT22;15461;41.652;9.378;2023-04-25T08:47:43;18.70;99.90
28177;DHT22;15461;41.652;9.378;2023-04-25T08:50:11;18.70;99.90
28177;DHT22;15461;41.652;9.378;2023-04-25T08:52:43;18.80;99.90
28177;DHT22;15461;41.652;9.378;2023-04-25T08:55:12;18.80;99.90
28177;DHT22;15461;41.652;9.378;2023-04-25T08:57:41;18.90;99.90
28177;DHT22;15461;41.652;9.378;2023-04-25T09:00:10;19.00;99.90
28177;DHT22;15461;41.652;9.378;2023-04-25T09:02:49;19.00;99.90
28177;DHT22;15461;41.652;9.378;2023-04-25T09:05:18;19.00;99.90
28177;DHT22;15461;41.652;9.378;2023-04-25T09:07:44;19.10;99.90
28177;DHT22;15461;41.652;9.378;2023-04-25T09:10:11;19.10;99.90
28177;DHT22;15461;41.652;9.378;2023-04-25T09:12:38;19.20;99.90
28177;DHT22;15461;41.652;9.378;2023-04-25T09:15:09;19.10;99.90
28177;DHT22;15461;41.652;9.378;2023-04-25T09:17:57;19.10;99.90
28177;DHT22;15461;41.652;9.378;2023-04-25T09:20:26;19.10;99.90
28177;DHT22;15461;41.652;9.378;2023-04-25T09:23:03;19.20;99.90
28177;DHT22;15461;41.652;9.378;2023-04-25T09:25:37;19.20;99.90
28177;DHT22;15461;41.652;9.378;2023-04-25T09:28:06;19.20;99.90
28177;DHT22;15461;41.652;9.378;2023-04-25T09:30:35;19.20;99.90
28177;DHT22;15461;41.652;9.378;2023-04-25T09:33:11;19.20;99.90
28177;DHT22;15461;41.652;9.378;2023-04-25T09:35:44;19.30;99.90
28177;DHT22;15461;41.652;9.378;2023-04-25T09:38:22;19.30;99.90
28177;DHT22;15461;41.652;9.378;2023-04-25T09:41:06;19.40;99.90
28177;DHT22;15461;41.652;9.378;2023-04-25T09:43:45;19.40;99.90
28177;DHT22;15461;41.652;9.378;2023-04-25T09:46:12;19.30;99.90
28177;DHT22;15461;41.652;9.378;2023-04-25T09:48:52;19.30;99.90
28177;DHT22;15461;41.652;9.378;2023-04-25T09:51:32;19.30;99.90
28177;DHT22;15461;41.652;9.378;2023-04-25T09:53:59;19.40;99.90
28177;DHT22;15461;41.652;9.378;2023-04-25T09:56:36;19.40;99.90
28177;DHT22;15461;41.652;9.378;2023-04-25T09:59:06;19.40;99.90
28177;DHT22;15461;41.652;9.378;2023-04-25T10:01:35;19.40;99.90
28177;DHT22;15461;41.652;9.378;2023-04-25T10:04:18;19.40;99.90
28177;DHT22;15461;41.652;9.378;2023-04-25T10:06:50;19.40;99.90
28177;DHT22;15461;41.652;9.378;2023-04-25T10:09:20;19.50;99.90
28177;DHT22;15461;41.652;9.378;2023-04-25T10:11:47;19.60;99.90
28177;DHT22;15461;41.652;9.378;2023-04-25T10:14:17;19.60;99.90
28177;DHT22;15461;41.652;9.378;2023-04-25T10:16:43;19.70;99.90
28177;DHT22;15461;41.652;9.378;2023-04-25T10:19:11;19.80;99.90
28177;DHT22;15461;41.652;9.378;2023-04-25T10:22:29;19.80;99.90
28177;DHT22;15461;41.652;9.378;2023-04-25T10:24:35;19.90;99.90
28177;DHT22;15461;41.652;9.378;2023-04-25T10:27:02;20.00;99.90
28177;DHT22;15461;41.652;9.378;2023-04-25T10:29:28;20.10;99.90
28177;DHT22;15461;41.652;9.378;2023-04-25T10:31:54;20.20;99.90
28177;DHT22;15461;41.652;9.378;2023-04-25T10:34:25;20.20;99.90
28177;DHT22;15461;41.652;9.378;2023-04-25T10:37:04;20.30;99.90
28177;DHT22;15461;41.652;9.378;2023-04-25T10:39:32;20.40;99.90
28177;DHT22;15461;41.652;9.378;2023-04-25T10:41:59;20.40;99.90
28177;DHT22;15461;41.652;9.378;2023-04-25T10:44:31;20.40;99.90
28177;DHT22;15461;41.652;9.378;2023-04-25T10:46:59;20.50;99.90
28177;DHT22;15461;41.652;9.378;2023-04-25T10:49:43;20.50;99.90
28177;DHT22;15461;41.652;9.378;2023-04-25T10:52:25;20.50;99.90
28177;DHT22;15461;41.652;9.378;2023-04-25T10:54:52;20.50;99.90
28177;DHT22;15461;41.652;9.378;2023-04-25T11:02:31;20.50;99.90
28177;DHT22;15461;41.652;9.378;2023-04-25T11:04:57;20.60;99.90
28177;DHT22;15461;41.652;9.378;2023-04-25T11:07:38;20.70;99.90
28177;DHT22;15461;41.652;9.378;2023-04-25T11:10:09;20.70;99.90
28177;DHT22;15461;41.652;9.378;2023-04-25T11:12:35;20.70;99.90
28177;DHT22;15461;41.652;9.378;2023-04-25T11:15:03;21.00;99.90
28177;DHT22;15461;41.652;9.378;2023-04-25T11:17:29;21.20;99.90
28177;DHT22;15461;41.652;9.378;2023-04-25T11:19:55;21.20;99.90
28177;DHT22;15461;41.652;9.378;2023-04-25T11:22:22;21.20;99.90
28177;DHT22;15461;41.652;9.378;2023-04-25T11:24:48;21.10;99.90
28177;DHT22;15461;41.652;9.378;2023-04-25T11:27:14;21.10;99.90
28177;DHT22;15461;41.652;9.378;2023-04-25T11:29:40;21.10;99.90
28177;DHT22;15461;41.652;9.378;2023-04-25T11:32:07;21.10;99.90
28177;DHT22;15461;41.652;9.378;2023-04-25T11:34:34;21.10;99.90
28177;DHT22;15461;41.652;9.378;2023-04-25T11:37:01;21.20;99.90
28177;DHT22;15461;41.652;9.378;2023-04-25T11:39:28;21.40;99.90
28177;DHT22;15461;41.652;9.378;2023-04-25T11:41:55;21.50;99.90
28177;DHT22;15461;41.652;9.378;2023-04-25T11:44:21;21.50;99.90
28177;DHT22;15461;41.652;9.378;2023-04-25T11:46:50;21.40;99.90
28177;DHT22;15461;41.652;9.378;2023-04-25T11:49:17;21.60;99.90
28177;DHT22;15461;41.652;9.378;2023-04-25T11:51:45;21.80;99.90
28177;DHT22;15461;41.652;9.378;2023-04-25T11:54:12;21.90;99.90
28177;DHT22;15461;41.652;9.378;2023-04-25T11:56:42;21.90;99.90
28177;DHT22;15461;41.652;9.378;2023-04-25T11:59:09;21.70;99.90
28177;DHT22;15461;41.652;9.378;2023-04-25T12:01:39;21.70;99.90
28177;DHT22;15461;41.652;9.378;2023-04-25T12:04:13;21.70;99.90
28177;DHT22;15461;41.652;9.378;2023-04-25T12:06:40;21.90;99.90
28177;DHT22;15461;41.652;9.378;2023-04-25T12:09:13;22.10;99.90
28177;DHT22;15461;41.652;9.378;2023-04-25T12:11:46;22.10;99.90
28177;DHT22;15461;41.652;9.378;2023-04-25T12:14:21;22.10;99.90
28177;DHT22;15461;41.652;9.378;2023-04-25T12:16:50;22.00;99.90
28177;DHT22;15461;41.652;9.378;2023-04-25T12:19:18;22.00;99.90
28177;DHT22;15461;41.652;9.378;2023-04-25T12:21:44;22.30;99.90
28177;DHT22;15461;41.652;9.378;2023-04-25T12:24:17;22.60;99.90
28177;DHT22;15461;41.652;9.378;2023-04-25T12:26:51;22.80;99.90
28177;DHT22;15461;41.652;9.378;2023-04-25T12:29:18;23.10;99.90
28177;DHT22;15461;41.652;9.378;2023-04-25T12:31:44;23.30;99.90
28177;DHT22;15461;41.652;9.378;2023-04-25T12:34:10;23.40;99.90
28177;DHT22;15461;41.652;9.378;2023-04-25T12:36:37;23.60;99.90
28177;DHT22;15461;41.652;9.378;2023-04-25T12:39:03;23.60;99.90
28177;DHT22;15461;41.652;9.378;2023-04-25T12:41:30;23.60;99.90
28177;DHT22;15461;41.652;9.378;2023-04-25T12:43:56;23.70;99.90
28177;DHT22;15461;41.652;9.378;2023-04-25T12:46:22;23.90;99.90
28177;DHT22;15461;41.652;9.378;2023-04-25T12:48:51;24.20;99.90
28177;DHT22;15461;41.652;9.378;2023-04-25T12:51:16;24.30;99.90
28177;DHT22;15461;41.652;9.378;2023-04-25T12:53:42;24.50;99.90
28177;DHT22;15461;41.652;9.378;2023-04-25T12:56:08;24.50;99.90
28177;DHT22;15461;41.652;9.378;2023-04-25T12:58:34;24.40;99.90
28177;DHT22;15461;41.652;9.378;2023-04-25T13:01:00;24.40;99.90
28177;DHT22;15461;41.652;9.378;2023-04-25T13:03:26;24.50;99.90
28177;DHT22;15461;41.652;9.378;2023-04-25T13:05:52;24.60;99.90
28177;DHT22;15461;41.652;9.378;2023-04-25T13:08:19;24.60;99.90
28177;DHT22;15461;41.652;9.378;2023-04-25T13:10:45;24.80;99.90
28177;DHT22;15461;41.652;9.378;2023-04-25T13:13:10;24.80;99.90
28177;DHT22;15461;41.652;9.378;2023-04-25T13:15:36;24.90;99.90
28177;DHT22;15461;41.652;9.378;2023-04-25T13:18:04;24.90;99.90
28177;DHT22;15461;41.652;9.378;2023-04-25T13:20:31;24.90;99.90
28177;DHT22;15461;41.652;9.378;2023-04-25T13:22:57;24.90;99.90
28177;DHT22;15461;41.652;9.378;2023-04-25T13:25:23;24.70;99.90
28177;DHT22;15461;41.652;9.378;2023-04-25T13:27:49;24.50;99.90
28177;DHT22;15461;41.652;9.378;2023-04-25T13:30:15;24.50;99.50
28177;DHT22;15461;41.652;9.378;2023-04-25T13:32:41;24.40;99.90
28177;DHT22;15461;41.652;9.378;2023-04-25T13:35:10;24.40;99.90
28177;DHT22;15461;41.652;9.378;2023-04-25T13:37:36;24.20;99.90
28177;DHT22;15461;41.652;9.378;2023-04-25T13:40:05;24.10;99.90
28177;DHT22;15461;41.652;9.378;2023-04-25T13:42:32;24.30;99.90
28177;DHT22;15461;41.652;9.378;2023-04-25T13:44:58;24.50;99.90
28177;DHT22;15461;41.652;9.378;2023-04-25T13:47:25;24.80;99.90
28177;DHT22;15461;41.652;9.378;2023-04-25T13:49:51;24.50;99.60
28177;DHT22;15461;41.652;9.378;2023-04-25T13:52:17;24.40;99.90
28177;DHT22;15461;41.652;9.378;2023-04-25T13:54:42;24.30;99.90
28177;DHT22;15461;41.652;9.378;2023-04-25T13:57:08;24.20;99.90
28177;DHT22;15461;41.652;9.378;2023-04-25T13:59:35;24.30;99.90
28177;DHT22;15461;41.652;9.378;2023-04-25T14:02:01;24.40;99.90
28177;DHT22;15461;41.652;9.378;2023-04-25T14:04:27;24.40;99.90
28177;DHT22;15461;41.652;9.378;2023-04-25T14:06:53;24.00;99.90
28177;DHT22;15461;41.652;9.378;2023-04-25T14:09:19;24.00;99.90
28177;DHT22;15461;41.652;9.378;2023-04-25T14:11:48;23.90;99.90
28177;DHT22;15461;41.652;9.378;2023-04-25T14:14:13;23.80;99.90
28177;DHT22;15461;41.652;9.378;2023-04-25T14:16:41;23.70;99.90
28177;DHT22;15461;41.652;9.378;2023-04-25T14:19:07;23.40;99.90
28177;DHT22;15461;41.652;9.378;2023-04-25T14:21:33;23.40;99.90
28177;DHT22;15461;41.652;9.378;2023-04-25T14:23:59;23.30;99.90
28177;DHT22;15461;41.652;9.378;2023-04-25T14:26:25;23.30;99.90
28177;DHT22;15461;41.652;9.378;2023-04-25T14:28:51;23.50;99.90
28177;DHT22;15461;41.652;9.378;2023-04-25T14:31:17;23.70;99.90
28177;DHT22;15461;41.652;9.378;2023-04-25T14:33:43;23.80;99.90
28177;DHT22;15461;41.652;9.378;2023-04-25T14:36:09;23.90;99.90
28177;DHT22;15461;41.652;9.378;2023-04-25T14:38:35;23.90;99.90
28177;DHT22;15461;41.652;9.378;2023-04-25T14:41:01;23.80;99.90
28177;DHT22;15461;41.652;9.378;2023-04-25T14:43:27;23.80;99.90
28177;DHT22;15461;41.652;9.378;2023-04-25T14:45:53;23.70;99.90
28177;DHT22;15461;41.652;9.378;2023-04-25T14:48:19;23.60;99.90
28177;DHT22;15461;41.652;9.378;2023-04-25T14:50:46;23.60;99.90
28177;DHT22;15461;41.652;9.378;2023-04-25T14:53:12;23.70;99.90
28177;DHT22;15461;41.652;9.378;2023-04-25T14:55:38;23.60;99.90
28177;DHT22;15461;41.652;9.378;2023-04-25T14:58:04;23.60;99.90
28177;DHT22;15461;41.652;9.378;2023-04-25T15:00:31;23.60;99.90
28177;DHT22;15461;41.652;9.378;2023-04-25T15:02:58;23.50;99.90
28177;DHT22;15461;41.652;9.378;2023-04-25T15:05:24;23.10;99.90
28177;DHT22;15461;41.652;9.378;2023-04-25T15:07:50;21.80;99.90
28177;DHT22;15461;41.652;9.378;2023-04-25T15:10:17;20.70;99.90
28177;DHT22;15461;41.652;9.378;2023-04-25T15:12:44;19.90;99.90
28177;DHT22;15461;41.652;9.378;2023-04-25T15:15:10;19.70;99.90
28177;DHT22;15461;41.652;9.378;2023-04-25T15:17:41;19.90;99.90
28177;DHT22;15461;41.652;9.378;2023-04-25T15:20:09;20.20;99.90
28177;DHT22;15461;41.652;9.378;2023-04-25T15:22:42;20.70;99.90
28177;DHT22;15461;41.652;9.378;2023-04-25T15:25:09;21.10;99.90
28177;DHT22;15461;41.652;9.378;2023-04-25T15:27:36;21.40;99.90
28177;DHT22;15461;41.652;9.378;2023-04-25T15:30:12;21.50;99.90
28177;DHT22;15461;41.652;9.378;2023-04-25T15:32:43;21.80;99.90
28177;DHT22;15461;41.652;9.378;2023-04-25T15:35:09;22.10;99.90
28177;DHT22;15461;41.652;9.378;2023-04-25T15:37:36;22.40;99.90
28177;DHT22;15461;41.652;9.378;2023-04-25T15:42:38;22.70;99.90
28177;DHT22;15461;41.652;9.378;2023-04-25T15:45:08;22.70;99.90
28177;DHT22;15461;41.652;9.378;2023-04-25T15:47:35;22.90;99.90
28177;DHT22;15461;41.652;9.378;2023-04-25T15:50:04;22.90;99.90
28177;DHT22;15461;41.652;9.378;2023-04-25T15:52:31;23.00;99.90
28177;DHT22;15461;41.652;9.378;2023-04-25T15:54:57;22.80;99.90